createdAt,value
2022-10-02T00:01:47.142Z,19.3
2022-10-02T00:03:47.081Z,19.5
2022-10-02T00:05:57.867Z,19.9
2022-10-02T00:07:57.820Z,20.0
2022-10-02T00:09:57.862Z,20.1
2022-10-02T00:11:59.928Z,20.3
2022-10-02T00:13:57.882Z,20.8
2022-10-02T00:15:57.934Z,20.6
2022-10-02T00:17:57.855Z,20.7
2022-10-02T00:19:57.880Z,21.0
2022-10-02T00:21:57.913Z,20.9
2022-10-02T00:23:57.874Z,21.1
2022-10-02T00:25:57.931Z,21.0
2022-10-02T00:27:57.958Z,20.9
2022-10-02T00:29:57.997Z,20.3
2022-10-02T00:31:57.986Z,20.3
2022-10-02T00:33:57.869Z,20.3
2022-10-02T00:35:57.890Z,20.1
2022-10-02T00:37:57.882Z,20.2
2022-10-02T00:39:57.876Z,20.1
2022-10-02T00:41:57.909Z,20.0
2022-10-02T00:43:57.999Z,20.0
2022-10-02T00:45:57.975Z,20.0
2022-10-02T00:47:57.895Z,20.0
2022-10-02T00:49:57.934Z,20.2
2022-10-02T00:51:57.857Z,20.0
2022-10-02T00:53:57.881Z,20.2
2022-10-02T00:55:57.878Z,20.2
2022-10-02T00:57:57.908Z,20.0
2022-10-02T00:59:57.872Z,19.9
2022-10-02T01:01:57.964Z,19.8
2022-10-02T01:03:57.873Z,19.5
2022-10-02T01:05:57.872Z,19.5
2022-10-02T01:07:57.878Z,19.5
2022-10-02T01:09:57.888Z,19.2
2022-10-02T01:11:57.879Z,19.1
2022-10-02T01:13:57.869Z,19.0
2022-10-02T01:15:57.960Z,18.8
2022-10-02T01:17:57.956Z,18.5
2022-10-02T01:19:57.913Z,18.3
2022-10-02T01:21:57.907Z,18.4
2022-10-02T01:23:57.972Z,18.4
2022-10-02T01:25:57.945Z,18.4
2022-10-02T01:27:58.036Z,18.6
2022-10-02T01:29:57.870Z,18.9
2022-10-02T01:31:57.960Z,19.1
2022-10-02T01:34:27.886Z,19.3
2022-10-02T01:36:27.937Z,19.3
2022-10-02T01:38:27.886Z,19.3
2022-10-02T01:40:27.922Z,19.4
2022-10-02T01:42:28.000Z,19.5
2022-10-02T01:44:27.895Z,19.4
2022-10-02T01:46:27.957Z,19.5
2022-10-02T01:48:28.076Z,19.4
2022-10-02T01:50:27.938Z,19.4
2022-10-02T01:52:27.951Z,19.8
2022-10-02T01:54:27.908Z,19.6
2022-10-02T01:56:27.991Z,19.5
2022-10-02T01:58:27.942Z,19.5
2022-10-02T02:00:27.900Z,19.8
2022-10-02T02:02:27.944Z,20.0
2022-10-02T02:04:27.958Z,20.2
2022-10-02T02:06:27.949Z,19.9
2022-10-02T02:08:27.901Z,19.7
2022-10-02T02:10:27.918Z,20.0
2022-10-02T02:12:28.004Z,20.0
2022-10-02T02:14:27.947Z,19.7
2022-10-02T02:16:28.051Z,19.8
2022-10-02T02:18:27.955Z,19.9
2022-10-02T02:20:28.066Z,19.8
2022-10-02T02:22:27.901Z,19.7
2022-10-02T02:24:27.999Z,19.8
2022-10-02T02:26:27.964Z,19.8
2022-10-02T02:28:27.973Z,19.8
2022-10-02T02:30:27.986Z,19.6
2022-10-02T02:32:27.909Z,19.3
2022-10-02T02:34:27.962Z,19.1
2022-10-02T02:36:27.997Z,19.2
2022-10-02T02:38:27.969Z,19.1
2022-10-02T02:40:27.991Z,19.2
2022-10-02T02:42:27.993Z,19.1
2022-10-02T02:44:27.944Z,19.2
2022-10-02T02:46:27.941Z,19.3
2022-10-02T02:48:28.099Z,19.3
2022-10-02T02:50:27.978Z,19.1
2022-10-02T02:52:27.929Z,18.9
2022-10-02T02:54:27.949Z,19.0
2022-10-02T02:56:27.953Z,19.1
2022-10-02T02:58:27.929Z,19.1
2022-10-02T03:00:27.969Z,19.2
2022-10-02T03:02:28.016Z,19.0
2022-10-02T03:04:27.961Z,18.9
2022-10-02T03:06:27.981Z,18.9
2022-10-02T03:08:27.988Z,19.0
2022-10-02T03:10:27.975Z,18.9
2022-10-02T03:12:27.973Z,18.9
2022-10-02T03:14:27.949Z,19.0
2022-10-02T03:16:27.975Z,19.0
2022-10-02T03:18:27.980Z,19.1
2022-10-02T03:20:27.989Z,19.2
2022-10-02T03:22:28.011Z,19.2
2022-10-02T03:24:27.945Z,19.1
2022-10-02T03:26:28.054Z,19.1
2022-10-02T03:28:53.760Z,19.1
2022-10-02T03:30:28.021Z,19.0
2022-10-02T03:32:28.006Z,19.2
2022-10-02T03:34:57.977Z,18.9
2022-10-02T03:36:58.214Z,19.1
2022-10-02T03:39:20.252Z,19.1
2022-10-02T03:40:58.249Z,19.3
2022-10-02T03:42:58.087Z,19.0
2022-10-02T03:44:57.995Z,18.9
2022-10-02T03:46:57.983Z,19.1
2022-10-02T03:48:58.136Z,19.3
2022-10-02T03:50:58.054Z,19.3
2022-10-02T03:52:58.049Z,19.4
2022-10-02T03:54:58.003Z,19.3
2022-10-02T03:56:57.988Z,19.4
2022-10-02T03:58:57.984Z,19.3
2022-10-02T04:00:58.008Z,19.3
2022-10-02T04:02:57.996Z,19.3
2022-10-02T04:04:58.211Z,19.2
2022-10-02T04:06:58.089Z,19.1
2022-10-02T04:08:57.990Z,19.2
2022-10-02T04:10:58.053Z,19.1
2022-10-02T04:12:58.010Z,18.9
2022-10-02T04:14:58.069Z,18.7
2022-10-02T04:16:57.996Z,18.7
2022-10-02T04:18:58.134Z,18.8
2022-10-02T04:20:58.022Z,18.6
2022-10-02T04:22:58.007Z,18.8
2022-10-02T04:24:58.095Z,18.6
2022-10-02T04:26:58.018Z,18.4
2022-10-02T04:28:58.036Z,18.7
2022-10-02T04:30:58.007Z,18.4
2022-10-02T04:32:58.045Z,18.7
2022-10-02T04:34:58.000Z,18.6
2022-10-02T04:36:58.012Z,18.5
2022-10-02T04:38:58.043Z,18.3
2022-10-02T04:40:58.072Z,18.3
2022-10-02T04:42:58.009Z,18.4
2022-10-02T04:44:58.011Z,18.2
2022-10-02T04:46:58.062Z,18.1
2022-10-02T04:48:58.036Z,18.0
2022-10-02T04:50:58.032Z,18.0
2022-10-02T04:52:58.015Z,18.0
2022-10-02T04:54:58.058Z,17.8
2022-10-02T04:56:58.044Z,17.9
2022-10-02T04:58:58.048Z,18.1
2022-10-02T05:00:58.081Z,18.2
2022-10-02T05:02:58.028Z,18.4
2022-10-02T05:04:58.057Z,18.3
2022-10-02T05:06:58.163Z,18.2
2022-10-02T05:08:58.044Z,18.2
2022-10-02T05:10:59.282Z,18.1
2022-10-02T05:12:58.038Z,18.2
2022-10-02T05:14:58.090Z,18.3
2022-10-02T05:16:58.068Z,18.3
2022-10-02T05:18:58.059Z,18.1
2022-10-02T05:20:58.104Z,18.3
2022-10-02T05:22:58.028Z,18.3
2022-10-02T05:24:58.053Z,18.4
2022-10-02T05:26:58.053Z,18.6
2022-10-02T05:28:58.035Z,18.8
2022-10-02T05:30:58.128Z,18.8
2022-10-02T05:33:28.052Z,18.7
2022-10-02T05:35:28.055Z,19.1
2022-10-02T05:37:28.062Z,19.1
2022-10-02T05:39:28.063Z,19.3
2022-10-02T05:41:28.082Z,19.3
2022-10-02T05:43:28.060Z,19.5
2022-10-02T05:45:28.092Z,19.5
2022-10-02T05:47:28.158Z,19.8
2022-10-02T05:49:28.065Z,19.9
2022-10-02T05:51:28.040Z,19.9
2022-10-02T05:53:28.061Z,19.9
2022-10-02T05:55:28.104Z,19.9
2022-10-02T05:57:28.045Z,19.7
2022-10-02T05:59:28.101Z,19.7
2022-10-02T06:01:28.266Z,19.9
2022-10-02T06:03:28.166Z,19.7
2022-10-02T06:05:28.159Z,19.9
2022-10-02T06:07:28.096Z,20.1
2022-10-02T06:09:28.077Z,20.1
2022-10-02T06:11:28.115Z,20.2
2022-10-02T06:13:28.050Z,20.3
2022-10-02T06:15:28.165Z,20.4
2022-10-02T06:17:28.208Z,20.5
2022-10-02T06:19:28.091Z,20.6
2022-10-02T06:21:28.093Z,20.6
2022-10-02T06:23:28.218Z,20.8
2022-10-02T06:25:28.137Z,20.8
2022-10-02T06:27:28.108Z,20.8
2022-10-02T06:29:28.114Z,20.7
2022-10-02T06:31:28.111Z,20.7
2022-10-02T06:33:28.152Z,21.0
2022-10-02T06:35:28.070Z,20.8
2022-10-02T06:37:28.280Z,21.0
2022-10-02T06:39:28.160Z,20.8
2022-10-02T06:41:28.145Z,20.6
2022-10-02T06:43:28.145Z,20.5
2022-10-02T06:45:28.346Z,20.5
2022-10-02T06:47:28.159Z,20.2
2022-10-02T06:49:28.102Z,20.1
2022-10-02T06:51:28.221Z,20.0
2022-10-02T06:53:28.332Z,20.2
2022-10-02T06:55:28.248Z,20.1
2022-10-02T06:57:28.167Z,20.6
2022-10-02T06:59:28.160Z,20.6
2022-10-02T07:01:28.091Z,20.4
2022-10-02T07:03:28.204Z,20.4
2022-10-02T07:05:29.352Z,20.3
2022-10-02T07:07:28.282Z,20.2
2022-10-02T07:09:28.172Z,20.1
2022-10-02T07:11:35.421Z,20.1
2022-10-02T07:15:28.184Z,20.2
2022-10-02T07:17:29.896Z,20.2
2022-10-02T07:19:43.056Z,20.3
2022-10-02T07:21:43.019Z,19.8
2022-10-02T07:23:43.120Z,19.9
2022-10-02T07:25:43.033Z,19.5
2022-10-02T07:27:43.043Z,19.6
2022-10-02T07:29:43.030Z,19.5
2022-10-02T07:31:43.065Z,19.4
2022-10-02T07:33:43.135Z,19.5
2022-10-02T07:35:43.047Z,19.2
2022-10-02T07:37:43.000Z,19.2
2022-10-02T07:39:43.142Z,19.3
2022-10-02T07:41:43.110Z,19.3
2022-10-02T07:43:43.024Z,19.1
2022-10-02T07:45:43.063Z,19.4
2022-10-02T07:47:43.214Z,19.2
2022-10-02T07:49:43.128Z,19.4
2022-10-02T07:51:43.073Z,19.7
2022-10-02T07:53:43.135Z,19.2
2022-10-02T07:55:43.117Z,19.3
2022-10-02T07:57:43.020Z,19.1
2022-10-02T07:59:43.036Z,19.4
2022-10-02T08:01:43.062Z,19.4
2022-10-02T08:03:43.034Z,19.5
2022-10-02T08:05:43.118Z,19.6
2022-10-02T08:07:43.074Z,19.5
2022-10-02T08:09:43.060Z,19.8
2022-10-02T08:11:46.122Z,19.6
2022-10-02T08:13:43.163Z,19.6
2022-10-02T08:15:43.063Z,19.5
2022-10-02T08:17:43.092Z,19.6
2022-10-02T08:19:43.074Z,19.5
2022-10-02T08:21:43.104Z,19.6
2022-10-02T08:23:43.102Z,19.9
2022-10-02T08:25:43.145Z,19.8
2022-10-02T08:27:43.135Z,19.8
2022-10-02T08:29:43.102Z,20.0
2022-10-02T08:32:13.195Z,20.3
2022-10-02T08:34:13.071Z,20.3
2022-10-02T08:36:13.117Z,20.6
2022-10-02T08:38:13.133Z,20.5
2022-10-02T08:40:13.134Z,20.4
2022-10-02T08:42:13.068Z,20.5
2022-10-02T08:44:13.202Z,20.9
2022-10-02T08:46:13.157Z,20.7
2022-10-02T08:48:13.076Z,21.0
2022-10-02T08:50:13.103Z,20.9
2022-10-02T08:52:13.049Z,20.6
2022-10-02T08:54:13.130Z,20.9
2022-10-02T08:56:17.748Z,20.8
2022-10-02T08:58:13.160Z,21.0
2022-10-02T09:00:13.185Z,20.9
2022-10-02T09:02:14.129Z,20.9
2022-10-02T09:04:13.099Z,21.0
2022-10-02T09:06:13.107Z,20.8
2022-10-02T09:08:13.267Z,21.0
2022-10-02T09:10:13.178Z,20.9
2022-10-02T09:12:13.216Z,21.0
2022-10-02T09:14:13.223Z,21.0
2022-10-02T09:16:13.255Z,21.2
2022-10-02T09:18:13.107Z,21.1
2022-10-02T09:20:13.129Z,20.9
2022-10-02T09:22:13.138Z,20.9
2022-10-02T09:24:13.154Z,20.6
2022-10-02T09:26:13.224Z,20.8
2022-10-02T09:28:13.208Z,20.9
2022-10-02T09:30:13.242Z,20.8
2022-10-02T09:32:13.142Z,20.5
2022-10-02T09:34:13.268Z,20.3
2022-10-02T09:36:13.129Z,20.2
2022-10-02T09:38:13.106Z,20.3
2022-10-02T09:40:13.082Z,20.4
2022-10-02T09:42:13.145Z,20.1
2022-10-02T09:44:13.173Z,19.7
2022-10-02T09:46:13.180Z,19.9
2022-10-02T09:48:13.103Z,19.7
2022-10-02T09:50:13.117Z,19.8
2022-10-02T09:52:13.160Z,20.0
2022-10-02T09:54:13.173Z,19.9
2022-10-02T09:56:16.653Z,19.6
2022-10-02T09:58:13.211Z,19.6
2022-10-02T10:00:13.275Z,19.6
2022-10-02T10:02:13.210Z,19.5
2022-10-02T10:04:13.231Z,19.4
2022-10-02T10:06:13.204Z,19.8
2022-10-02T10:08:13.108Z,19.8
2022-10-02T10:10:13.205Z,19.7
2022-10-02T10:12:13.104Z,19.7
2022-10-02T10:14:13.140Z,19.6
2022-10-02T10:16:13.382Z,19.6
2022-10-02T10:18:13.174Z,19.3
2022-10-02T10:20:13.186Z,19.6
2022-10-02T10:22:13.204Z,20.0
2022-10-02T10:24:13.175Z,19.9
2022-10-02T10:26:13.216Z,20.0
2022-10-02T10:28:13.182Z,19.8
2022-10-02T10:30:13.122Z,19.9
2022-10-02T10:32:43.229Z,20.0
2022-10-02T10:34:43.168Z,20.0
2022-10-02T10:36:46.592Z,20.0
2022-10-02T10:38:43.181Z,20.0
2022-10-02T10:40:43.237Z,20.0
2022-10-02T10:43:06.026Z,20.1
2022-10-02T10:44:43.239Z,20.3
2022-10-02T10:46:43.233Z,19.9
2022-10-02T10:48:48.507Z,19.6
2022-10-02T10:50:43.257Z,19.4
2022-10-02T10:52:43.218Z,19.4
2022-10-02T10:54:43.260Z,19.4
2022-10-02T10:56:43.215Z,19.5
2022-10-02T10:58:43.182Z,19.5
2022-10-02T11:00:43.350Z,19.3
2022-10-02T11:02:43.317Z,19.3
2022-10-02T11:04:43.309Z,19.4
2022-10-02T11:06:46.068Z,19.0
2022-10-02T11:08:43.348Z,19.3
2022-10-02T11:10:43.187Z,19.3
2022-10-02T11:12:43.286Z,19.2
2022-10-02T11:14:43.242Z,19.1
2022-10-02T11:16:43.384Z,19.5
2022-10-02T11:18:43.184Z,19.4
2022-10-02T11:20:43.203Z,19.1
2022-10-02T11:22:43.258Z,19.2
2022-10-02T11:24:43.216Z,19.1
2022-10-02T11:26:43.217Z,19.3
2022-10-02T11:28:43.274Z,19.5
2022-10-02T11:30:43.304Z,19.3
2022-10-02T11:32:43.266Z,19.4
2022-10-02T11:34:43.415Z,19.5
2022-10-02T11:36:43.352Z,19.4
2022-10-02T11:38:43.306Z,19.6
2022-10-02T11:40:43.234Z,19.8
2022-10-02T11:42:43.197Z,19.9
2022-10-02T11:44:43.302Z,20.1
2022-10-02T11:46:44.356Z,20.3
2022-10-02T11:48:43.284Z,20.3
2022-10-02T11:50:43.317Z,20.2
2022-10-02T11:52:47.970Z,20.2
2022-10-02T11:54:43.222Z,20.2
2022-10-02T11:56:43.265Z,20.0
2022-10-02T11:58:43.284Z,19.9
2022-10-02T12:00:43.264Z,20.0
2022-10-02T12:02:43.359Z,20.0
2022-10-02T12:04:43.334Z,19.8
2022-10-02T12:06:43.224Z,19.9
2022-10-02T12:08:43.276Z,19.7
2022-10-02T12:10:43.235Z,19.9
2022-10-02T12:12:43.277Z,20.0
2022-10-02T12:14:43.298Z,20.1
2022-10-02T12:16:43.376Z,19.9
2022-10-02T12:18:43.207Z,19.8
2022-10-02T12:20:43.352Z,20.1
2022-10-02T12:22:43.257Z,20.3
2022-10-02T12:24:43.250Z,20.1
2022-10-02T12:26:43.252Z,20.0
2022-10-02T12:28:43.320Z,19.9
2022-10-02T12:31:13.313Z,19.7
2022-10-02T12:33:13.298Z,19.4
2022-10-02T12:35:13.296Z,19.0
2022-10-02T12:37:13.355Z,18.9
2022-10-02T12:39:13.255Z,18.9
2022-10-02T12:41:13.246Z,19.1
2022-10-02T12:43:13.330Z,19.2
2022-10-02T12:45:13.265Z,18.8
2022-10-02T12:47:13.333Z,19.0
2022-10-02T12:49:13.361Z,19.1
2022-10-02T12:51:13.319Z,19.5
2022-10-02T12:53:13.243Z,19.8
2022-10-02T12:55:13.248Z,19.9
2022-10-02T12:57:13.219Z,19.8
2022-10-02T12:59:13.285Z,20.0
2022-10-02T13:01:13.336Z,19.8
2022-10-02T13:03:13.362Z,19.7
2022-10-02T13:05:13.372Z,19.7
2022-10-02T13:07:13.317Z,19.6
2022-10-02T13:09:13.294Z,19.5
2022-10-02T13:11:13.250Z,19.5
2022-10-02T13:13:13.311Z,19.3
2022-10-02T13:15:13.324Z,19.3
2022-10-02T13:17:13.344Z,19.5
2022-10-02T13:19:13.426Z,19.4
2022-10-02T13:21:13.362Z,19.2
2022-10-02T13:23:13.398Z,19.3
2022-10-02T13:25:13.303Z,19.3
2022-10-02T13:27:13.298Z,19.2
2022-10-02T13:29:13.329Z,19.1
2022-10-02T13:31:13.309Z,19.4
2022-10-02T13:33:13.332Z,19.6
2022-10-02T13:35:13.386Z,19.8
2022-10-02T13:37:13.368Z,19.9
2022-10-02T13:39:13.315Z,20.0
2022-10-02T13:41:13.355Z,19.8
2022-10-02T13:43:13.370Z,19.5
2022-10-02T13:45:13.417Z,19.5
2022-10-02T13:47:13.485Z,19.4
2022-10-02T13:49:13.393Z,19.3
2022-10-02T13:51:13.484Z,19.1
2022-10-02T13:53:13.367Z,19.0
2022-10-02T13:55:13.340Z,18.9
2022-10-02T13:57:13.422Z,18.9
2022-10-02T13:59:13.414Z,18.9
2022-10-02T14:01:13.430Z,19.4
2022-10-02T14:03:13.361Z,19.2
2022-10-02T14:05:13.412Z,19.3
2022-10-02T14:07:13.412Z,19.4
2022-10-02T14:09:13.432Z,19.6
2022-10-02T14:11:14.968Z,19.6
2022-10-02T14:13:14.404Z,19.8
2022-10-02T14:15:13.408Z,19.7
2022-10-02T14:17:13.420Z,19.5
2022-10-02T14:19:13.368Z,19.8
2022-10-02T14:21:13.774Z,19.8
2022-10-02T14:23:13.503Z,19.5
2022-10-02T14:25:27.563Z,19.5
2022-10-02T14:27:27.593Z,19.6
2022-10-02T14:29:27.553Z,19.8
2022-10-02T14:31:27.656Z,19.7
2022-10-02T14:33:27.596Z,19.8
2022-10-02T14:35:27.616Z,19.7
2022-10-02T14:37:27.609Z,19.9
2022-10-02T14:39:27.505Z,19.8
2022-10-02T14:41:27.550Z,19.8
2022-10-02T14:43:27.595Z,19.8
2022-10-02T14:45:27.635Z,19.9
2022-10-02T14:47:27.623Z,19.8
2022-10-02T14:49:27.741Z,19.8
2022-10-02T14:51:27.629Z,19.7
2022-10-02T14:53:27.624Z,19.6
2022-10-02T14:55:27.546Z,19.8
2022-10-02T14:57:27.608Z,20.0
2022-10-02T14:59:27.590Z,20.1
2022-10-02T15:01:27.639Z,19.7
2022-10-02T15:03:27.603Z,19.9
2022-10-02T15:05:27.682Z,19.7
2022-10-02T15:07:27.643Z,19.8
2022-10-02T15:09:27.671Z,19.6
2022-10-02T15:11:27.599Z,19.3
2022-10-02T15:13:27.611Z,19.3
2022-10-02T15:15:28.682Z,19.4
2022-10-02T15:17:27.643Z,19.3
2022-10-02T15:19:27.648Z,19.3
2022-10-02T15:21:27.688Z,19.2
2022-10-02T15:23:27.561Z,19.3
2022-10-02T15:25:27.738Z,19.5
2022-10-02T15:27:27.584Z,19.5
2022-10-02T15:29:27.576Z,19.6
2022-10-02T15:31:57.727Z,19.6
2022-10-02T15:33:57.639Z,19.8
2022-10-02T15:35:57.643Z,19.9
2022-10-02T15:37:57.608Z,19.8
2022-10-02T15:39:57.724Z,19.5
2022-10-02T15:41:57.688Z,19.6
2022-10-02T15:43:57.632Z,19.6
2022-10-02T15:45:57.746Z,19.7
2022-10-02T15:47:57.673Z,19.9
2022-10-02T15:49:57.683Z,19.6
2022-10-02T15:51:57.714Z,19.8
2022-10-02T15:53:57.840Z,19.9
2022-10-02T15:55:57.895Z,19.6
2022-10-02T15:57:57.647Z,19.5
2022-10-02T15:59:57.636Z,19.5
2022-10-02T16:01:57.711Z,19.7
2022-10-02T16:03:57.646Z,19.5
2022-10-02T16:05:57.692Z,19.5
2022-10-02T16:07:57.681Z,19.4
2022-10-02T16:09:57.689Z,19.5
2022-10-02T16:11:57.758Z,19.6
2022-10-02T16:13:57.624Z,19.8
2022-10-02T16:15:57.704Z,19.6
2022-10-02T16:17:57.808Z,19.8
2022-10-02T16:19:57.694Z,19.6
2022-10-02T16:21:57.712Z,19.8
2022-10-02T16:23:57.637Z,19.7
2022-10-02T16:25:57.705Z,19.5
2022-10-02T16:27:57.680Z,19.5
2022-10-02T16:29:57.619Z,19.5
2022-10-02T16:31:57.715Z,19.2
2022-10-02T16:33:57.669Z,18.9
2022-10-02T16:35:57.693Z,19.0
2022-10-02T16:37:57.706Z,19.4
2022-10-02T16:39:57.691Z,19.5
2022-10-02T16:41:58.741Z,19.6
2022-10-02T16:43:57.660Z,19.7
2022-10-02T16:45:57.685Z,19.9
2022-10-02T16:47:57.728Z,19.7
2022-10-02T16:49:57.675Z,19.8
2022-10-02T16:51:59.634Z,19.8
2022-10-02T16:53:57.759Z,19.8
2022-10-02T16:55:57.716Z,19.9
2022-10-02T16:57:57.627Z,19.8
2022-10-02T16:59:57.647Z,19.9
2022-10-02T17:02:17.059Z,20.0
2022-10-02T17:03:59.057Z,20.0
2022-10-02T17:05:58.983Z,20.1
2022-10-02T17:07:57.851Z,20.1
2022-10-02T17:09:57.865Z,20.1
2022-10-02T17:11:57.938Z,20.1
2022-10-02T17:13:58.173Z,19.7
2022-10-02T17:15:59.078Z,19.9
2022-10-02T17:17:57.954Z,19.9
2022-10-02T17:19:57.976Z,20.1
2022-10-02T17:21:57.982Z,20.3
2022-10-02T17:23:58.067Z,20.0
2022-10-02T17:25:57.959Z,20.5
2022-10-02T17:27:57.916Z,20.4
2022-10-02T17:29:58.025Z,20.1
2022-10-02T17:32:28.246Z,20.3
2022-10-02T17:34:27.892Z,20.5
2022-10-02T17:36:27.948Z,20.3
2022-10-02T17:38:27.879Z,20.0
2022-10-02T17:40:28.926Z,19.8
2022-10-02T17:42:28.467Z,19.8
2022-10-02T17:44:27.949Z,20.0
2022-10-02T17:46:28.925Z,19.7
2022-10-02T17:48:28.632Z,19.8
2022-10-02T17:50:27.979Z,19.7
2022-10-02T17:52:27.951Z,19.7
2022-10-02T17:54:27.838Z,19.7
2022-10-02T17:56:27.957Z,19.6
2022-10-02T17:58:28.012Z,20.0
2022-10-02T18:00:29.401Z,19.8
2022-10-02T18:02:28.696Z,19.6
2022-10-02T18:04:27.878Z,19.7
2022-10-02T18:06:27.759Z,20.0
2022-10-02T18:08:30.463Z,20.2
2022-10-02T18:10:27.790Z,20.4
2022-10-02T18:12:27.808Z,20.3
2022-10-02T18:14:27.698Z,20.5
2022-10-02T18:16:27.862Z,20.9
2022-10-02T18:18:27.692Z,20.8
2022-10-02T18:20:28.646Z,20.8
2022-10-02T18:22:28.198Z,20.6
2022-10-02T18:24:27.652Z,20.7
2022-10-02T18:26:27.924Z,20.1
2022-10-02T18:28:27.837Z,20.4
2022-10-02T18:30:27.696Z,20.5
2022-10-02T18:32:27.747Z,20.4
2022-10-02T18:34:27.796Z,20.5
2022-10-02T18:36:28.802Z,20.5
2022-10-02T18:38:27.663Z,20.5
2022-10-02T18:40:27.758Z,20.4
2022-10-02T18:42:27.723Z,20.3
2022-10-02T18:44:27.658Z,20.2
2022-10-02T18:46:27.753Z,20.0
2022-10-02T18:48:27.739Z,20.1
2022-10-02T18:50:27.748Z,19.9
2022-10-02T18:52:27.840Z,19.9
2022-10-02T18:54:27.809Z,19.9
2022-10-02T18:56:27.858Z,19.9
2022-10-02T18:58:27.737Z,19.8
2022-10-02T19:00:27.724Z,19.9
2022-10-02T19:02:27.856Z,20.1
2022-10-02T19:04:27.771Z,20.3
2022-10-02T19:06:27.772Z,20.0
2022-10-02T19:08:27.842Z,19.8
2022-10-02T19:10:27.769Z,19.7
2022-10-02T19:12:27.834Z,19.7
2022-10-02T19:14:27.819Z,19.8
2022-10-02T19:16:27.766Z,19.5
2022-10-02T19:18:27.668Z,19.5
2022-10-02T19:20:27.753Z,19.5
2022-10-02T19:22:27.799Z,19.5
2022-10-02T19:24:27.744Z,19.2
2022-10-02T19:26:27.821Z,19.4
2022-10-02T19:28:27.843Z,19.2
2022-10-02T19:30:57.876Z,19.1
2022-10-02T19:32:57.701Z,19.1
2022-10-02T19:34:57.747Z,19.1
2022-10-02T19:36:57.768Z,19.4
2022-10-02T19:38:57.838Z,19.5
2022-10-02T19:40:57.797Z,19.9
2022-10-02T19:42:57.824Z,20.1
2022-10-02T19:44:57.873Z,20.1
2022-10-02T19:46:57.741Z,20.1
2022-10-02T19:48:57.883Z,20.1
2022-10-02T19:50:57.748Z,20.4
2022-10-02T19:52:57.795Z,20.1
2022-10-02T19:54:57.822Z,20.3
2022-10-02T19:56:57.707Z,20.2
2022-10-02T19:58:57.738Z,20.1
2022-10-02T20:00:57.807Z,20.1
2022-10-02T20:02:57.744Z,20.0
2022-10-02T20:04:57.757Z,19.9
2022-10-02T20:06:57.736Z,19.8
2022-10-02T20:08:57.805Z,19.6
2022-10-02T20:10:57.798Z,19.9
2022-10-02T20:12:57.832Z,20.0
2022-10-02T20:14:57.861Z,20.2
2022-10-02T20:16:57.769Z,20.5
2022-10-02T20:18:57.870Z,20.4
2022-10-02T20:20:57.758Z,20.3
2022-10-02T20:22:57.743Z,20.4
2022-10-02T20:24:57.732Z,20.5
2022-10-02T20:26:57.732Z,20.3
2022-10-02T20:28:57.888Z,20.4
2022-10-02T20:30:57.876Z,20.4
2022-10-02T20:32:57.770Z,20.4
2022-10-02T20:34:57.722Z,20.3
2022-10-02T20:36:57.847Z,20.3
2022-10-02T20:38:57.886Z,20.1
2022-10-02T20:40:57.828Z,20.0
2022-10-02T20:42:57.874Z,19.9
2022-10-02T20:44:57.772Z,19.7
2022-10-02T20:46:57.895Z,19.8
2022-10-02T20:49:07.468Z,19.7
2022-10-02T20:50:57.798Z,19.9
2022-10-02T20:52:57.774Z,20.3
2022-10-02T20:54:57.783Z,20.2
2022-10-02T20:56:57.867Z,20.5
2022-10-02T20:58:57.873Z,20.3
2022-10-02T21:00:57.830Z,20.2
2022-10-02T21:02:57.936Z,20.3
2022-10-02T21:04:57.880Z,20.3
2022-10-02T21:06:57.803Z,20.1
2022-10-02T21:08:57.850Z,20.4
2022-10-02T21:10:57.812Z,20.5
2022-10-02T21:12:57.894Z,20.5
2022-10-02T21:14:57.873Z,20.3
2022-10-02T21:16:57.962Z,20.0
2022-10-02T21:18:57.803Z,20.2
2022-10-02T21:20:57.823Z,20.5
2022-10-02T21:22:57.871Z,20.4
2022-10-02T21:27:27.939Z,20.1
2022-10-02T21:29:27.945Z,20.1
2022-10-02T21:31:27.846Z,20.1
2022-10-02T21:33:27.943Z,20.2
2022-10-02T21:35:27.908Z,20.0
2022-10-02T21:37:27.837Z,19.9
2022-10-02T21:39:27.902Z,20.0
2022-10-02T21:41:27.821Z,20.0
2022-10-02T21:45:10.384Z,20.1
2022-10-02T21:47:10.286Z,20.2
2022-10-02T21:49:10.296Z,20.5
2022-10-02T21:51:10.335Z,20.6
2022-10-02T21:53:10.268Z,20.3
2022-10-02T21:55:10.225Z,20.1
2022-10-02T21:57:10.282Z,20.0
2022-10-02T21:59:10.327Z,20.0
2022-10-02T22:01:10.365Z,19.9
2022-10-02T22:03:10.327Z,19.8
2022-10-02T22:05:10.264Z,19.8
2022-10-02T22:07:10.225Z,20.0
2022-10-02T22:09:10.265Z,19.8
2022-10-02T22:11:10.309Z,19.5
2022-10-02T22:13:10.292Z,19.2
2022-10-02T22:15:41.363Z,19.3
2022-10-02T22:17:41.341Z,19.1
2022-10-02T22:19:40.318Z,19.0
2022-10-02T22:21:40.562Z,19.1
2022-10-02T22:23:40.332Z,19.2
2022-10-02T22:25:40.320Z,19.3
2022-10-02T22:27:41.310Z,19.4
2022-10-02T22:29:41.364Z,19.5
2022-10-02T22:31:41.732Z,19.4
2022-10-02T22:33:40.339Z,19.5
2022-10-02T22:35:40.391Z,19.5
2022-10-02T22:37:40.270Z,19.8
2022-10-02T22:39:40.344Z,19.6
2022-10-02T22:41:40.548Z,19.8
2022-10-02T22:43:40.299Z,19.9
2022-10-02T22:45:40.419Z,19.7
2022-10-02T22:47:40.275Z,19.6
2022-10-02T22:49:41.280Z,19.5
2022-10-02T22:51:40.744Z,19.5
2022-10-02T22:53:40.436Z,19.3
2022-10-02T22:55:40.326Z,19.2
2022-10-02T22:57:41.338Z,18.8
2022-10-02T22:59:41.342Z,19.2
2022-10-02T23:01:40.539Z,19.1
2022-10-02T23:03:40.382Z,19.3
2022-10-02T23:05:40.362Z,19.6
2022-10-02T23:07:40.392Z,19.6
2022-10-02T23:09:40.325Z,19.7
2022-10-02T23:11:40.550Z,19.6
2022-10-02T23:13:41.370Z,19.8
2022-10-02T23:15:40.405Z,19.6
2022-10-02T23:17:40.353Z,19.8
2022-10-02T23:19:40.418Z,19.6
2022-10-02T23:21:44.671Z,19.8
2022-10-02T23:23:40.325Z,20.1
2022-10-02T23:25:41.324Z,20.1
2022-10-02T23:27:40.371Z,20.1
2022-10-02T23:29:40.367Z,20.0
2022-10-02T23:31:40.728Z,19.9
2022-10-02T23:33:40.269Z,19.8
2022-10-02T23:35:40.935Z,20.0
2022-10-02T23:37:40.356Z,19.7
2022-10-02T23:39:40.271Z,19.8
2022-10-02T23:41:41.914Z,19.5
2022-10-02T23:43:40.303Z,19.5
2022-10-02T23:45:40.364Z,19.7
2022-10-02T23:47:40.464Z,19.9
2022-10-02T23:49:41.377Z,19.8
2022-10-02T23:51:40.705Z,20.2
2022-10-02T23:53:41.330Z,20.6
2022-10-02T23:55:40.387Z,20.8
2022-10-02T23:57:40.319Z,21.2
2022-10-02T23:59:40.297Z,21.4
